createdAt,value
2023-03-12T00:00:34.480Z,101060.03
2023-03-12T00:03:02.156Z,101058.31
2023-03-12T00:05:29.862Z,101061.81
2023-03-12T00:07:59.785Z,101066.16
2023-03-12T00:10:27.586Z,101070.53
2023-03-12T00:12:55.292Z,101070.53
2023-03-12T00:15:24.335Z,101069.66
2023-03-12T00:17:52.120Z,101080.16
2023-03-12T00:20:20.221Z,101075.78
2023-03-12T00:22:47.874Z,101081.88
2023-03-12T00:25:16.488Z,101073.16
2023-03-12T00:27:44.376Z,101068.75
2023-03-12T00:30:13.087Z,101076.59
2023-03-12T00:32:42.138Z,101072.25
2023-03-12T00:35:10.155Z,101076.59
2023-03-12T00:37:37.918Z,101084.47
2023-03-12T00:40:08.388Z,101074.84
2023-03-12T00:42:36.103Z,101069.63
2023-03-12T00:45:03.904Z,101073.16
2023-03-12T00:47:31.577Z,101074.84
2023-03-12T00:50:00.606Z,101067.88
2023-03-12T00:52:28.275Z,101063.53
2023-03-12T00:54:58.305Z,101064.41
2023-03-12T00:57:26.209Z,101067.88
2023-03-12T00:59:53.900Z,101064.41
2023-03-12T01:02:21.578Z,101070.53
2023-03-12T01:04:49.256Z,101071.41
2023-03-12T01:07:18.268Z,101076.63
2023-03-12T01:09:45.947Z,101073.16
2023-03-12T01:12:13.626Z,101071.38
2023-03-12T01:14:41.293Z,101076.63
2023-03-12T01:17:08.957Z,101081.88
2023-03-12T01:19:36.655Z,101077.53
2023-03-12T01:22:04.370Z,101080.16
2023-03-12T01:24:33.601Z,101084.50
2023-03-12T01:27:01.260Z,101087.09
2023-03-12T01:29:28.920Z,101079.25
2023-03-12T01:31:56.600Z,101081.88
2023-03-12T01:34:24.286Z,101076.63
2023-03-12T01:36:51.947Z,101080.09
2023-03-12T01:39:19.630Z,101072.25
2023-03-12T01:41:48.651Z,101070.47
2023-03-12T01:44:16.318Z,101073.97
2023-03-12T01:46:44.199Z,101073.06
2023-03-12T01:49:13.709Z,101069.56
2023-03-12T01:51:42.327Z,101070.44
2023-03-12T01:54:12.188Z,101074.81
2023-03-12T01:56:39.891Z,101076.56
2023-03-12T01:59:12.450Z,101071.34
2023-03-12T02:01:40.136Z,101073.09
2023-03-12T02:04:08.994Z,101078.31
2023-03-12T02:06:38.821Z,101079.19
2023-03-12T02:09:07.216Z,101081.81
2023-03-12T02:11:34.936Z,101071.34
2023-03-12T02:14:02.661Z,101075.69
2023-03-12T02:16:31.772Z,101073.94
2023-03-12T02:18:59.513Z,101074.84
2023-03-12T02:21:29.468Z,101068.72
2023-03-12T02:24:02.316Z,101068.69
2023-03-12T02:26:31.522Z,101073.94
2023-03-12T02:29:00.562Z,101065.19
2023-03-12T02:31:33.239Z,101067.88
2023-03-12T02:34:01.283Z,101070.47
2023-03-12T02:36:28.983Z,101074.84
2023-03-12T02:38:57.125Z,101071.34
2023-03-12T02:41:25.935Z,101071.34
2023-03-12T02:43:58.820Z,101076.56
2023-03-12T02:46:26.672Z,101070.47
2023-03-12T02:48:54.352Z,101076.56
2023-03-12T02:51:22.005Z,101066.09
2023-03-12T02:53:54.593Z,101067.81
2023-03-12T02:56:23.205Z,101077.44
2023-03-12T02:58:50.956Z,101069.63
2023-03-12T03:01:20.499Z,101071.34
2023-03-12T03:03:48.345Z,101073.97
2023-03-12T03:06:16.123Z,101068.72
2023-03-12T03:08:43.806Z,101066.94
2023-03-12T03:11:11.604Z,101076.53
2023-03-12T03:13:39.406Z,101066.06
2023-03-12T03:16:07.742Z,101069.53
2023-03-12T03:18:36.806Z,101071.34
2023-03-12T03:21:05.879Z,101066.09
2023-03-12T03:23:33.660Z,101066.09
2023-03-12T03:26:01.457Z,101059.06
2023-03-12T03:28:29.688Z,101058.22
2023-03-12T03:31:01.287Z,101052.09
2023-03-12T03:33:29.016Z,101066.91
2023-03-12T03:35:59.476Z,101057.34
2023-03-12T03:38:27.498Z,101067.81
2023-03-12T03:40:55.320Z,101062.56
2023-03-12T03:43:23.122Z,101068.72
2023-03-12T03:45:51.248Z,101059.06
2023-03-12T03:48:18.932Z,101059.06
2023-03-12T03:50:46.609Z,101060.84
2023-03-12T03:53:15.836Z,101057.31
2023-03-12T03:55:43.504Z,101059.94
2023-03-12T03:58:11.173Z,101057.34
2023-03-12T04:00:38.900Z,101059.06
2023-03-12T04:03:06.684Z,101050.38
2023-03-12T04:05:34.443Z,101055.63
2023-03-12T04:08:03.524Z,101055.63
2023-03-12T04:10:32.599Z,101047.72
2023-03-12T04:13:00.269Z,101050.38
2023-03-12T04:15:28.066Z,101056.50
2023-03-12T04:17:55.826Z,101055.63
2023-03-12T04:20:23.543Z,101053.88
2023-03-12T04:22:51.221Z,101054.72
2023-03-12T04:25:19.022Z,101050.38
2023-03-12T04:27:48.103Z,101045.16
2023-03-12T04:30:16.035Z,101050.38
2023-03-12T04:32:43.751Z,101044.34
2023-03-12T04:35:11.835Z,101046.94
2023-03-12T04:37:39.534Z,101048.69
2023-03-12T04:40:09.719Z,101043.44
2023-03-12T04:42:37.578Z,101042.56
2023-03-12T04:45:07.798Z,101039.94
2023-03-12T04:47:35.556Z,101028.59
2023-03-12T04:50:03.266Z,101039.94
2023-03-12T04:52:30.991Z,101047.81
2023-03-12T04:54:59.400Z,101039.94
2023-03-12T04:57:27.073Z,101041.72
2023-03-12T04:59:54.863Z,101043.47
2023-03-12T05:02:23.922Z,101041.75
2023-03-12T05:04:51.577Z,101045.25
2023-03-12T05:07:19.841Z,101041.75
2023-03-12T05:09:47.544Z,101041.75
2023-03-12T05:12:15.218Z,101039.16
2023-03-12T05:14:42.943Z,101053.13
2023-03-12T05:17:10.600Z,101050.50
2023-03-12T05:19:39.648Z,101044.38
2023-03-12T05:22:07.307Z,101039.94
2023-03-12T05:24:35.021Z,101044.31
2023-03-12T05:27:02.969Z,101045.19
2023-03-12T05:29:35.297Z,101038.16
2023-03-12T05:32:03.034Z,101034.66
2023-03-12T05:34:31.318Z,101036.38
2023-03-12T05:37:00.479Z,101034.59
2023-03-12T05:39:28.164Z,101028.44
2023-03-12T05:41:57.177Z,101028.38
2023-03-12T05:44:24.998Z,101019.63
2023-03-12T05:46:52.764Z,101025.69
2023-03-12T05:49:20.507Z,101013.50
2023-03-12T05:51:48.281Z,101014.31
2023-03-12T05:54:18.982Z,101006.44
2023-03-12T05:56:46.684Z,101011.66
2023-03-12T05:59:14.341Z,101004.69
2023-03-12T06:01:42.123Z,101007.28
2023-03-12T06:04:09.791Z,101009.00
2023-03-12T06:06:37.753Z,101005.50
2023-03-12T06:09:05.638Z,101001.16
2023-03-12T06:11:35.478Z,101004.63
2023-03-12T06:14:03.183Z,100993.25
2023-03-12T06:16:30.962Z,100995.91
2023-03-12T06:19:00.326Z,101002.88
2023-03-12T06:21:29.186Z,100999.38
2023-03-12T06:23:57.350Z,101000.25
2023-03-12T06:26:25.213Z,100992.38
2023-03-12T06:28:54.254Z,100986.28
2023-03-12T06:31:22.543Z,100988.91
2023-03-12T06:33:50.238Z,100993.25
2023-03-12T06:36:17.985Z,100996.75
2023-03-12T06:38:45.676Z,100994.97
2023-03-12T06:41:14.856Z,100989.75
2023-03-12T06:43:42.652Z,100994.13
2023-03-12T06:46:14.257Z,100988.91
2023-03-12T06:48:42.132Z,100989.75
2023-03-12T06:51:09.926Z,100987.16
2023-03-12T06:53:38.830Z,100986.28
2023-03-12T06:56:08.791Z,100983.66
2023-03-12T06:58:36.455Z,100978.41
2023-03-12T07:01:04.201Z,100978.41
2023-03-12T07:03:33.259Z,100979.28
2023-03-12T07:06:00.951Z,100980.16
2023-03-12T07:08:30.884Z,100978.41
2023-03-12T07:11:01.185Z,100981.03
2023-03-12T07:13:29.298Z,100980.97
2023-03-12T07:15:56.999Z,100983.56
2023-03-12T07:18:24.740Z,100977.47
2023-03-12T07:20:53.807Z,100984.44
2023-03-12T07:23:21.520Z,100975.69
2023-03-12T07:25:49.276Z,100983.53
2023-03-12T07:28:17.170Z,100976.56
2023-03-12T07:30:50.275Z,100977.41
2023-03-12T07:33:18.791Z,100976.47
2023-03-12T07:35:48.107Z,100978.22
2023-03-12T07:38:18.340Z,100975.59
2023-03-12T07:40:51.602Z,100972.97
2023-03-12T07:43:21.553Z,100979.94
2023-03-12T07:45:49.685Z,100981.69
2023-03-12T07:48:19.677Z,100977.31
2023-03-12T07:50:47.562Z,100979.06
2023-03-12T07:53:15.289Z,100976.41
2023-03-12T07:55:45.017Z,100977.25
2023-03-12T07:58:13.847Z,100966.78
2023-03-12T08:00:41.570Z,100965.88
2023-03-12T08:03:09.367Z,100968.44
2023-03-12T08:05:37.198Z,100971.06
2023-03-12T08:08:04.898Z,100955.31
2023-03-12T08:10:32.670Z,100955.25
2023-03-12T08:13:01.801Z,100952.63
2023-03-12T08:15:29.496Z,100958.75
2023-03-12T08:17:57.155Z,100957.88
2023-03-12T08:20:24.799Z,100955.25
2023-03-12T08:22:52.488Z,100951.72
2023-03-12T08:25:21.088Z,100956.09
2023-03-12T08:27:48.777Z,100957.84
2023-03-12T08:30:18.402Z,100958.72
2023-03-12T08:32:46.095Z,100963.94
2023-03-12T08:35:13.800Z,100964.78
2023-03-12T08:37:42.165Z,100955.19
2023-03-12T08:40:13.225Z,100949.03
2023-03-12T08:42:41.092Z,100949.00
2023-03-12T08:45:09.654Z,100949.88
2023-03-12T08:47:41.452Z,100955.13
2023-03-12T08:50:11.195Z,100946.34
2023-03-12T08:52:38.943Z,100935.84
2023-03-12T08:55:07.348Z,100928.81
2023-03-12T08:57:35.029Z,100931.41
2023-03-12T09:00:05.236Z,100920.88
2023-03-12T09:02:32.893Z,100916.50
2023-03-12T09:05:01.920Z,100910.38
2023-03-12T09:07:29.633Z,100907.75
2023-03-12T09:09:57.398Z,100901.63
2023-03-12T09:12:25.205Z,100900.78
2023-03-12T09:15:08.510Z,100905.94
2023-03-12T09:17:36.259Z,100898.94
2023-03-12T09:20:08.309Z,100892.78
2023-03-12T09:22:37.124Z,100892.75
2023-03-12T09:25:05.014Z,100891.81
2023-03-12T09:27:37.119Z,100896.13
2023-03-12T09:30:06.572Z,100882.97
2023-03-12T09:32:34.335Z,100875.91
2023-03-12T09:35:02.040Z,100867.19
2023-03-12T09:37:32.244Z,100856.69
2023-03-12T09:40:00.001Z,100865.34
2023-03-12T09:42:30.842Z,100858.34
2023-03-12T09:44:58.537Z,100841.72
2023-03-12T09:47:28.001Z,100824.22
2023-03-12T09:49:57.050Z,100809.28
2023-03-12T09:52:26.451Z,100807.50
2023-03-12T09:54:57.436Z,100782.97
2023-03-12T09:57:25.879Z,100786.38
2023-03-12T09:59:53.564Z,100782.81
2023-03-12T10:02:51.054Z,100776.59
2023-03-12T10:05:19.796Z,100769.66
2023-03-12T10:07:48.888Z,100767.88
2023-03-12T10:10:27.187Z,100764.38
2023-03-12T10:13:06.122Z,100759.13
2023-03-12T10:15:39.325Z,100754.78
2023-03-12T10:18:12.831Z,100757.28
2023-03-12T10:20:51.898Z,100759.91
2023-03-12T10:23:28.603Z,100752.97
2023-03-12T10:25:59.529Z,100739.81
2023-03-12T10:28:30.585Z,100730.13
2023-03-12T10:30:59.189Z,100730.97
2023-03-12T10:33:31.634Z,100724.84
2023-03-12T10:35:59.552Z,100716.19
2023-03-12T10:38:28.884Z,100716.13
2023-03-12T10:40:57.933Z,100705.63
2023-03-12T10:43:25.589Z,100720.47
2023-03-12T10:45:58.044Z,100724.84
2023-03-12T10:48:26.453Z,100713.56
2023-03-12T10:51:04.295Z,100708.31
2023-03-12T10:53:32.519Z,100710.94
2023-03-12T10:56:03.567Z,100726.66
2023-03-12T10:58:36.527Z,100721.41
2023-03-12T11:01:05.423Z,100717.94
2023-03-12T11:03:33.861Z,100723.19
2023-03-12T11:06:02.176Z,100724.97
2023-03-12T11:08:30.651Z,100731.91
2023-03-12T11:10:59.050Z,100726.66
2023-03-12T11:13:32.536Z,100721.41
2023-03-12T11:16:01.125Z,100718.75
2023-03-12T11:18:33.489Z,100718.72
2023-03-12T11:21:15.695Z,100703.84
2023-03-12T11:23:44.128Z,100714.34
2023-03-12T11:26:14.008Z,100724.84
2023-03-12T11:28:44.916Z,100729.25
2023-03-12T11:31:17.045Z,100739.75
2023-03-12T11:33:44.748Z,100728.44
2023-03-12T11:36:22.589Z,100739.78
2023-03-12T11:38:52.373Z,100729.28
2023-03-12T11:41:26.427Z,100734.50
2023-03-12T11:44:01.924Z,100731.88
2023-03-12T11:46:36.209Z,100730.97
2023-03-12T11:49:10.413Z,100731.84
2023-03-12T11:51:42.239Z,100712.59
2023-03-12T11:54:45.849Z,100703.84
2023-03-12T11:57:15.744Z,100697.81
2023-03-12T11:59:50.700Z,100701.19
2023-03-12T12:02:26.630Z,100689.84
2023-03-12T12:05:13.641Z,100685.41
2023-03-12T12:07:47.504Z,100688.91
2023-03-12T12:10:24.054Z,100678.44
2023-03-12T12:12:54.910Z,100667.03
2023-03-12T12:15:28.979Z,100671.38
2023-03-12T12:18:01.045Z,100675.72
2023-03-12T12:20:34.517Z,100670.47
2023-03-12T12:23:09.377Z,100670.44
2023-03-12T12:26:06.570Z,100659.13
2023-03-12T12:28:55.482Z,100653.88
2023-03-12T12:31:32.193Z,100638.97
2023-03-12T12:34:07.636Z,100627.63
2023-03-12T12:36:36.550Z,100617.09
2023-03-12T12:39:06.672Z,100610.94
2023-03-12T12:41:35.625Z,100602.13
2023-03-12T12:44:04.092Z,100602.13
2023-03-12T12:46:34.680Z,100602.13
2023-03-12T12:49:03.435Z,100599.50
2023-03-12T12:51:32.338Z,100605.69
2023-03-12T12:54:01.608Z,100593.47
2023-03-12T12:56:31.007Z,100581.22
2023-03-12T12:59:21.485Z,100577.75
2023-03-12T13:01:50.552Z,100584.72
2023-03-12T13:04:21.582Z,100576.88
2023-03-12T13:06:56.772Z,100561.13
2023-03-12T13:09:36.048Z,100555.09
2023-03-12T13:12:19.758Z,100548.94
2023-03-12T13:14:47.728Z,100558.50
2023-03-12T13:17:28.266Z,100570.84
2023-03-12T13:20:01.606Z,100556.00
2023-03-12T13:22:50.908Z,100550.78
2023-03-12T13:25:25.881Z,100547.34
2023-03-12T13:27:58.777Z,100539.53
2023-03-12T13:30:48.107Z,100546.53
2023-03-12T13:33:18.236Z,100538.69
2023-03-12T13:35:49.947Z,100539.59
2023-03-12T13:38:19.469Z,100536.06
2023-03-12T13:41:00.891Z,100530.81
2023-03-12T13:43:51.246Z,100532.47
2023-03-12T13:46:29.672Z,100521.09
2023-03-12T13:49:01.124Z,100518.47
2023-03-12T13:51:28.796Z,100522.00
2023-03-12T13:53:57.961Z,100522.00
2023-03-12T13:56:27.459Z,100522.94
2023-03-12T13:58:56.955Z,100513.31
2023-03-12T14:01:25.732Z,100510.72
2023-03-12T14:03:54.354Z,100507.22
2023-03-12T14:06:24.008Z,100498.44
2023-03-12T14:09:07.710Z,100492.34
2023-03-12T14:11:42.967Z,100495.84
2023-03-12T14:14:41.295Z,100495.84
2023-03-12T14:17:15.588Z,100505.56
2023-03-12T14:19:46.964Z,100494.16
2023-03-12T14:22:15.998Z,100492.44
2023-03-12T14:24:49.258Z,100481.94
2023-03-12T14:27:19.836Z,100470.56
2023-03-12T14:29:49.238Z,100481.97
2023-03-12T14:32:18.351Z,100477.59
2023-03-12T14:34:46.918Z,100475.91
2023-03-12T14:37:17.960Z,100470.66
2023-03-12T14:39:47.220Z,100461.94
2023-03-12T14:42:21.308Z,100454.06
2023-03-12T14:44:54.998Z,100464.56
2023-03-12T14:47:22.656Z,100455.00
2023-03-12T14:49:50.322Z,100461.06
2023-03-12T14:52:24.300Z,100456.75
2023-03-12T14:54:55.977Z,100463.78
2023-03-12T14:57:24.791Z,100459.41
2023-03-12T14:59:56.064Z,100448.03
2023-03-12T15:02:23.989Z,100446.28
2023-03-12T15:04:55.128Z,100452.44
2023-03-12T15:07:26.636Z,100451.56
2023-03-12T15:09:54.324Z,100451.66
2023-03-12T15:12:22.907Z,100444.63
2023-03-12T15:14:51.540Z,100429.78
2023-03-12T15:17:20.103Z,100426.28
2023-03-12T15:19:47.844Z,100416.72
2023-03-12T15:22:16.876Z,100413.25
2023-03-12T15:24:46.052Z,100419.34
2023-03-12T15:27:24.312Z,100414.97
2023-03-12T15:29:52.086Z,100412.34
2023-03-12T15:32:20.505Z,100408.00
2023-03-12T15:34:48.411Z,100400.97
2023-03-12T15:37:24.265Z,100399.28
2023-03-12T15:39:53.550Z,100394.94
2023-03-12T15:42:23.539Z,100394.06
2023-03-12T15:44:53.965Z,100389.69
2023-03-12T15:47:22.649Z,100387.09
2023-03-12T15:49:52.853Z,100388.88
2023-03-12T15:52:29.178Z,100381.00
2023-03-12T15:55:03.035Z,100385.41
2023-03-12T15:57:30.786Z,100388.91
2023-03-12T16:00:18.087Z,100389.78
2023-03-12T16:02:50.169Z,100384.53
2023-03-12T16:05:17.937Z,100378.41
2023-03-12T16:07:45.647Z,100385.44
2023-03-12T16:10:15.944Z,100375.78
2023-03-12T16:12:43.986Z,100375.88
2023-03-12T16:15:14.892Z,100372.31
2023-03-12T16:17:42.851Z,100366.22
2023-03-12T16:20:13.421Z,100362.75
2023-03-12T16:22:41.299Z,100366.25
2023-03-12T16:25:11.977Z,100371.50
2023-03-12T16:27:45.186Z,100367.13
2023-03-12T16:30:15.452Z,100370.63
2023-03-12T16:32:43.259Z,100363.63
2023-03-12T16:35:14.461Z,100374.13
2023-03-12T16:37:42.157Z,100369.75
2023-03-12T16:40:11.820Z,100358.38
2023-03-12T16:42:42.190Z,100361.91
2023-03-12T16:45:11.199Z,100352.31
2023-03-12T16:47:39.217Z,100354.97
2023-03-12T16:50:14.919Z,100356.69
2023-03-12T16:52:42.594Z,100347.88
2023-03-12T16:55:10.744Z,100333.13
2023-03-12T16:57:39.263Z,100331.38
2023-03-12T17:00:13.006Z,100330.44
2023-03-12T17:02:40.708Z,100330.44
2023-03-12T17:05:08.918Z,100334.91
2023-03-12T17:07:36.737Z,100348.84
2023-03-12T17:10:04.508Z,100355.88
2023-03-12T17:12:32.940Z,100347.94
2023-03-12T17:15:00.732Z,100352.38
2023-03-12T17:17:29.873Z,100336.66
2023-03-12T17:20:00.358Z,100323.50
2023-03-12T17:22:28.135Z,100319.94
2023-03-12T17:24:55.793Z,100327.81
2023-03-12T17:27:23.546Z,100323.50
2023-03-12T17:29:51.239Z,100331.41
2023-03-12T17:32:19.371Z,100337.53
2023-03-12T17:34:48.416Z,100326.13
2023-03-12T17:37:16.079Z,100327.88
2023-03-12T17:39:43.776Z,100330.50
2023-03-12T17:42:11.443Z,100336.59
2023-03-12T17:44:39.414Z,100336.59
2023-03-12T17:47:07.185Z,100340.97
2023-03-12T17:49:34.896Z,100334.81
2023-03-12T17:52:04.224Z,100336.59
2023-03-12T17:54:31.897Z,100333.16
2023-03-12T17:56:59.572Z,100332.28
2023-03-12T17:59:27.267Z,100334.06
2023-03-12T18:01:54.928Z,100327.03
2023-03-12T18:04:22.642Z,100320.91
2023-03-12T18:06:50.371Z,100321.78
2023-03-12T18:09:19.408Z,100323.53
2023-03-12T18:11:47.068Z,100313.97
2023-03-12T18:14:14.733Z,100323.59
2023-03-12T18:16:42.454Z,100316.53
2023-03-12T18:19:10.110Z,100316.53
2023-03-12T18:21:37.800Z,100313.00
2023-03-12T18:24:14.071Z,100308.59
2023-03-12T18:26:45.200Z,100317.34
2023-03-12T18:29:13.031Z,100316.53
2023-03-12T18:31:40.743Z,100323.53
2023-03-12T18:34:08.427Z,100323.53
2023-03-12T18:36:36.100Z,100313.00
2023-03-12T18:39:06.133Z,100311.22
2023-03-12T18:41:33.842Z,100319.94
2023-03-12T18:44:02.867Z,100319.94
2023-03-12T18:46:30.578Z,100322.56
2023-03-12T18:48:58.304Z,100322.56
2023-03-12T18:51:25.996Z,100324.31
2023-03-12T18:53:53.660Z,100332.28
2023-03-12T18:56:21.385Z,100333.94
2023-03-12T18:58:49.064Z,100325.19
2023-03-12T19:01:18.181Z,100335.69
2023-03-12T19:03:45.971Z,100332.16
2023-03-12T19:06:14.810Z,100329.50
2023-03-12T19:08:42.586Z,100323.41
2023-03-12T19:11:11.530Z,100313.78
2023-03-12T19:13:39.300Z,100311.16
2023-03-12T19:16:08.411Z,100315.56
2023-03-12T19:18:37.736Z,100315.56
2023-03-12T19:21:06.069Z,100325.19
2023-03-12T19:23:33.839Z,100321.72
2023-03-12T19:26:01.563Z,100319.94
2023-03-12T19:28:29.399Z,100326.06
2023-03-12T19:31:00.335Z,100332.19
2023-03-12T19:33:28.755Z,100331.31
2023-03-12T19:35:58.088Z,100325.19
2023-03-12T19:38:25.995Z,100321.66
2023-03-12T19:40:55.421Z,100320.88
2023-03-12T19:43:23.376Z,100325.19
2023-03-12T19:45:51.142Z,100321.72
2023-03-12T19:48:18.876Z,100319.91
2023-03-12T19:50:46.572Z,100321.63
2023-03-12T19:53:17.430Z,100317.28
2023-03-12T19:55:47.393Z,100313.78
2023-03-12T19:58:15.388Z,100321.66
2023-03-12T20:00:43.123Z,100323.41
2023-03-12T20:03:10.962Z,100312.91
2023-03-12T20:05:38.725Z,100311.16
2023-03-12T20:08:06.851Z,100312.91
2023-03-12T20:10:35.924Z,100319.91
2023-03-12T20:13:03.604Z,100323.41
2023-03-12T20:15:31.333Z,100312.84
2023-03-12T20:17:59.031Z,100320.69
2023-03-12T20:20:26.763Z,100317.19
2023-03-12T20:22:54.591Z,100322.53
2023-03-12T20:25:22.314Z,100318.25
2023-03-12T20:27:51.728Z,100316.59
2023-03-12T20:30:19.900Z,100317.59
2023-03-12T20:32:47.761Z,100308.84
2023-03-12T20:35:16.137Z,100309.72
2023-03-12T20:37:43.871Z,100307.84
2023-03-12T20:40:12.864Z,100308.59
2023-03-12T20:42:41.568Z,100316.38
2023-03-12T20:45:11.727Z,100315.53
2023-03-12T20:47:40.357Z,100309.38
2023-03-12T20:50:08.585Z,100314.56
2023-03-12T20:52:36.280Z,100314.50
2023-03-12T20:55:04.114Z,100314.50
2023-03-12T20:57:31.836Z,100312.75
2023-03-12T21:00:00.023Z,100317.06
2023-03-12T21:02:29.161Z,100317.03
2023-03-12T21:04:56.933Z,100310.06
2023-03-12T21:07:24.642Z,100310.88
2023-03-12T21:09:52.343Z,100309.97
2023-03-12T21:12:20.053Z,100303.81
2023-03-12T21:14:47.764Z,100305.53
2023-03-12T21:17:15.462Z,100300.28
2023-03-12T21:19:44.547Z,100294.25
2023-03-12T21:22:12.257Z,100297.69
2023-03-12T21:24:40.224Z,100291.63
2023-03-12T21:27:11.171Z,100288.09
2023-03-12T21:29:38.901Z,100290.75
2023-03-12T21:32:06.854Z,100289.84
2023-03-12T21:34:34.862Z,100284.59
2023-03-12T21:37:03.978Z,100293.31
2023-03-12T21:39:31.699Z,100290.72
2023-03-12T21:41:59.568Z,100287.22
2023-03-12T21:44:27.483Z,100284.59
2023-03-12T21:46:55.249Z,100277.59
2023-03-12T21:49:22.997Z,100278.44
2023-03-12T21:51:50.807Z,100270.56
2023-03-12T21:54:19.937Z,100274.03
2023-03-12T21:56:47.624Z,100264.47
2023-03-12T21:59:15.294Z,100264.44
2023-03-12T22:01:42.997Z,100258.31
2023-03-12T22:04:10.730Z,100254.75
2023-03-12T22:06:38.432Z,100253.06
2023-03-12T22:09:06.131Z,100242.56
2023-03-12T22:11:35.248Z,100243.44
2023-03-12T22:14:02.926Z,100230.31
2023-03-12T22:16:30.659Z,100226.78
2023-03-12T22:18:58.407Z,100218.91
2023-03-12T22:21:26.112Z,100214.53
2023-03-12T22:23:54.651Z,100208.41
2023-03-12T22:26:22.889Z,100208.41
2023-03-12T22:28:52.404Z,100214.53
2023-03-12T22:31:20.405Z,100211.00
2023-03-12T22:33:48.175Z,100211.81
2023-03-12T22:36:16.322Z,100212.75
2023-03-12T22:38:44.096Z,100209.28
2023-03-12T22:41:13.732Z,100204.88
2023-03-12T22:43:41.442Z,100204.03
2023-03-12T22:46:10.581Z,100198.78
2023-03-12T22:48:38.290Z,100192.63
2023-03-12T22:51:06.537Z,100190.00
2023-03-12T22:53:34.277Z,100190.00
2023-03-12T22:56:02.846Z,100183.88
2023-03-12T22:58:30.655Z,100198.72
2023-03-12T23:01:01.727Z,100185.66
2023-03-12T23:03:31.379Z,100189.13
2023-03-12T23:05:59.169Z,100183.88
2023-03-12T23:08:27.191Z,100186.56
2023-03-12T23:10:55.359Z,100186.50
2023-03-12T23:13:23.096Z,100183.94
2023-03-12T23:15:50.777Z,100183.03
2023-03-12T23:18:18.608Z,100187.41
2023-03-12T23:20:47.747Z,100183.09
2023-03-12T23:23:16.566Z,100176.13
2023-03-12T23:25:44.312Z,100179.59
2023-03-12T23:28:11.991Z,100169.16
2023-03-12T23:30:39.719Z,100168.25
2023-03-12T23:33:07.397Z,100169.06
2023-03-12T23:35:35.180Z,100159.44
2023-03-12T23:38:06.085Z,100154.97
2023-03-12T23:40:33.813Z,100154.00
2023-03-12T23:43:01.513Z,100147.91
2023-03-12T23:45:29.225Z,100132.19
2023-03-12T23:47:56.928Z,100127.72
2023-03-12T23:50:24.602Z,100114.69
2023-03-12T23:52:52.727Z,100112.03
2023-03-12T23:55:21.776Z,100105.84
2023-03-12T23:57:49.459Z,100104.09
